Mansfield, Pennsylvania
Current Conditions -  °F | °C
As of 12:35 PM on Saturday 22 Nov 2014 (Local Time) from KN38 Reporting Station
Overcast Overcast  
Wind Chill: 24°   Ceiling: 2200
Heat Index: 34°   Visibility: 10mi
Dew Point:   Wind: 15mph
Humidity: 35%   Direction: 210°SSW
Pressure: 30.17"   Gusts: 22mph
Location:  41.81°N, 77.08°W
Report Text: KN38 221735Z AUTO 21013G19KT 10SM BKN022 OVC028 01/M13 A3017 RMK AO2
Loading
Personal Weather Stations






























Interactive Weather Map New forecast layout! Learn more

10-Day Weather Forecast

Advertisements
Track Severe Weather on mobile